createdAt,value
2023-04-06T00:00:49.698Z,72.62
2023-04-06T00:03:16.866Z,72.24
2023-04-06T00:05:43.780Z,72.35
2023-04-06T00:08:10.925Z,72.71
2023-04-06T00:10:37.778Z,72.82
2023-04-06T00:13:04.853Z,72.79
2023-04-06T00:15:31.741Z,72.75
2023-04-06T00:17:58.624Z,72.53
2023-04-06T00:20:25.930Z,72.95
2023-04-06T00:22:52.893Z,72.86
2023-04-06T00:25:19.811Z,72.75
2023-04-06T00:27:46.581Z,73.10
2023-04-06T00:30:13.605Z,73.22
2023-04-06T00:32:40.625Z,73.01
2023-04-06T00:35:08.226Z,72.96
2023-04-06T00:37:35.022Z,73.05
2023-04-06T00:40:01.913Z,73.04
2023-04-06T00:42:28.999Z,73.72
2023-04-06T00:45:00.825Z,73.37
2023-04-06T00:47:28.297Z,73.52
2023-04-06T00:49:55.844Z,73.20
2023-04-06T00:52:23.005Z,72.92
2023-04-06T00:54:51.627Z,73.44
2023-04-06T00:57:20.732Z,73.20
2023-04-06T00:59:53.496Z,74.00
2023-04-06T01:02:21.093Z,73.70
2023-04-06T01:04:51.119Z,73.44
2023-04-06T01:07:30.112Z,73.94
2023-04-06T01:10:06.295Z,73.94
2023-04-06T01:12:34.817Z,73.62
2023-04-06T01:15:06.797Z,73.19
2023-04-06T01:17:36.396Z,73.56
2023-04-06T01:20:10.922Z,73.53
2023-04-06T01:22:38.832Z,73.69
2023-04-06T01:25:06.661Z,73.71
2023-04-06T01:27:41.289Z,74.04
2023-04-06T01:30:21.074Z,73.60
2023-04-06T01:32:54.567Z,73.74
2023-04-06T01:35:38.974Z,73.90
2023-04-06T01:38:13.484Z,73.73
2023-04-06T01:40:40.510Z,73.67
2023-04-06T01:43:07.762Z,74.23
2023-04-06T01:45:43.631Z,74.14
2023-04-06T01:48:16.401Z,73.80
2023-04-06T01:50:44.052Z,73.83
2023-04-06T01:53:15.424Z,74.05
2023-04-06T01:55:44.096Z,74.22
2023-04-06T01:58:31.016Z,74.01
2023-04-06T02:00:58.751Z,73.98
2023-04-06T02:03:28.627Z,74.60
2023-04-06T02:06:05.012Z,73.99
2023-04-06T02:08:36.998Z,73.88
2023-04-06T02:11:04.073Z,74.40
2023-04-06T02:13:37.318Z,73.71
2023-04-06T02:16:04.420Z,74.63
2023-04-06T02:18:32.173Z,74.66
2023-04-06T02:20:59.114Z,74.68
2023-04-06T02:23:26.259Z,74.00
2023-04-06T02:25:53.405Z,73.90
2023-04-06T02:28:20.347Z,74.65
2023-04-06T02:30:47.733Z,74.58
2023-04-06T02:33:15.017Z,74.54
2023-04-06T02:35:46.012Z,74.06
2023-04-06T02:38:13.085Z,74.45
2023-04-06T02:40:39.931Z,74.20
2023-04-06T02:43:18.112Z,74.46
2023-04-06T02:45:46.108Z,74.61
2023-04-06T02:48:13.932Z,74.51
2023-04-06T02:50:40.891Z,74.74
2023-04-06T02:53:08.742Z,74.38
2023-04-06T02:55:37.694Z,74.65
2023-04-06T02:58:04.750Z,74.76
2023-04-06T03:00:39.757Z,74.50
2023-04-06T03:03:07.019Z,75.05
2023-04-06T03:05:34.112Z,74.72
2023-04-06T03:08:01.177Z,74.69
2023-04-06T03:10:38.368Z,74.77
2023-04-06T03:13:05.475Z,74.65
2023-04-06T03:15:52.244Z,74.76
2023-04-06T03:18:26.016Z,74.82
2023-04-06T03:20:55.128Z,74.80
2023-04-06T03:23:25.893Z,74.82
2023-04-06T03:25:57.853Z,74.80
2023-04-06T03:28:24.712Z,74.74
2023-04-06T03:31:00.768Z,74.87
2023-04-06T03:33:45.126Z,74.82
2023-04-06T03:36:19.170Z,74.85
2023-04-06T03:38:46.258Z,74.93
2023-04-06T03:41:14.690Z,74.20
2023-04-06T03:43:46.957Z,74.89
2023-04-06T03:46:14.052Z,74.96
2023-04-06T03:48:40.936Z,75.01
2023-04-06T03:51:07.951Z,74.93
2023-04-06T03:53:34.778Z,74.98
2023-04-06T03:56:04.157Z,75.24
2023-04-06T03:58:32.084Z,75.08
2023-04-06T04:00:59.002Z,74.98
2023-04-06T04:03:28.287Z,74.90
2023-04-06T04:05:56.480Z,75.01
2023-04-06T04:08:26.026Z,74.91
2023-04-06T04:10:52.870Z,75.21
2023-04-06T04:13:20.468Z,75.08
2023-04-06T04:15:50.104Z,75.14
2023-04-06T04:18:17.000Z,75.28
2023-04-06T04:20:43.809Z,75.37
2023-04-06T04:23:12.518Z,75.10
2023-04-06T04:25:39.651Z,75.37
2023-04-06T04:28:07.119Z,75.14
2023-04-06T04:30:34.362Z,75.32
2023-04-06T04:33:01.668Z,75.33
2023-04-06T04:35:29.212Z,75.33
2023-04-06T04:37:57.797Z,75.50
2023-04-06T04:40:24.639Z,75.53
2023-04-06T04:42:57.443Z,75.74
2023-04-06T04:45:31.207Z,75.91
2023-04-06T04:48:02.740Z,75.54
2023-04-06T04:50:37.921Z,75.58
2023-04-06T04:53:07.096Z,76.00
2023-04-06T04:55:34.101Z,75.87
2023-04-06T04:58:03.519Z,75.93
2023-04-06T05:00:44.971Z,75.83
2023-04-06T05:03:17.691Z,75.94
2023-04-06T05:05:47.296Z,75.96
2023-04-06T05:08:17.304Z,75.89
2023-04-06T05:10:49.182Z,75.64
2023-04-06T05:13:17.126Z,75.58
2023-04-06T05:15:46.561Z,75.46
2023-04-06T05:18:33.380Z,75.21
2023-04-06T05:21:02.781Z,75.23
2023-04-06T05:23:41.577Z,75.00
2023-04-06T05:26:08.646Z,75.18
2023-04-06T05:28:35.878Z,75.03
2023-04-06T05:31:04.071Z,74.91
2023-04-06T05:33:38.943Z,74.95
2023-04-06T05:36:09.786Z,74.75
2023-04-06T05:38:41.149Z,74.73
2023-04-06T05:41:21.489Z,74.77
2023-04-06T05:43:49.006Z,74.77
2023-04-06T05:46:16.025Z,74.67
2023-04-06T05:48:42.956Z,74.49
2023-04-06T05:51:11.955Z,74.29
2023-04-06T05:53:44.891Z,74.14
2023-04-06T05:56:12.264Z,74.35
2023-04-06T05:58:40.151Z,74.10
2023-04-06T06:01:11.023Z,74.04
2023-04-06T06:03:42.255Z,74.21
2023-04-06T06:06:09.354Z,74.43
2023-04-06T06:08:54.137Z,73.86
2023-04-06T06:11:21.302Z,74.02
2023-04-06T06:13:50.218Z,73.57
2023-04-06T06:16:18.528Z,73.68
2023-04-06T06:18:48.072Z,74.03
2023-04-06T06:21:15.923Z,73.83
2023-04-06T06:23:44.061Z,73.82
2023-04-06T06:26:15.060Z,73.77
2023-04-06T06:28:42.187Z,73.52
2023-04-06T06:31:11.672Z,73.59
2023-04-06T06:33:38.667Z,73.44
2023-04-06T06:36:05.948Z,73.33
2023-04-06T06:38:32.848Z,73.38
2023-04-06T06:40:59.949Z,73.18
2023-04-06T06:43:30.663Z,73.11
2023-04-06T06:46:04.611Z,72.81
2023-04-06T06:48:31.749Z,72.65
2023-04-06T06:50:58.706Z,72.35
2023-04-06T06:53:25.986Z,71.98
2023-04-06T06:55:52.912Z,72.04
2023-04-06T06:58:21.099Z,71.69
2023-04-06T07:00:48.765Z,71.39
2023-04-06T07:03:16.032Z,71.36
2023-04-06T07:05:54.446Z,70.96
2023-04-06T07:08:24.338Z,71.12
2023-04-06T07:10:57.639Z,70.56
2023-04-06T07:13:25.791Z,70.46
2023-04-06T07:15:55.980Z,70.43
2023-04-06T07:18:23.610Z,69.85
2023-04-06T07:20:50.864Z,70.04
2023-04-06T07:23:18.423Z,69.58
2023-04-06T07:25:45.858Z,69.80
2023-04-06T07:28:12.884Z,69.45
2023-04-06T07:30:41.445Z,69.56
2023-04-06T07:33:10.314Z,69.14
2023-04-06T07:35:37.873Z,68.95
2023-04-06T07:38:06.384Z,68.34
2023-04-06T07:40:34.753Z,68.42
2023-04-06T07:43:03.133Z,68.05
2023-04-06T07:45:30.730Z,68.29
2023-04-06T07:47:58.218Z,67.60
2023-04-06T07:50:27.138Z,67.66
2023-04-06T07:52:55.119Z,67.38
2023-04-06T07:55:22.314Z,67.22
2023-04-06T07:57:49.173Z,66.83
2023-04-06T08:00:16.844Z,66.74
2023-04-06T08:02:43.963Z,66.30
2023-04-06T08:05:11.092Z,66.40
2023-04-06T08:07:38.233Z,66.29
2023-04-06T08:10:05.753Z,66.07
2023-04-06T08:12:35.083Z,66.11
2023-04-06T08:15:03.528Z,65.86
2023-04-06T08:17:32.267Z,65.90
2023-04-06T08:19:59.187Z,65.84
2023-04-06T08:22:26.242Z,65.22
2023-04-06T08:24:53.099Z,65.46
2023-04-06T08:27:20.470Z,65.01
2023-04-06T08:29:47.437Z,65.10
2023-04-06T08:32:14.412Z,65.14
2023-04-06T08:34:41.522Z,65.01
2023-04-06T08:37:08.578Z,64.89
2023-04-06T08:39:35.637Z,64.54
2023-04-06T08:42:04.299Z,64.76
2023-04-06T08:44:33.301Z,64.47
2023-04-06T08:47:00.789Z,64.47
2023-04-06T08:49:27.668Z,64.52
2023-04-06T08:51:56.232Z,64.31
2023-04-06T08:54:23.117Z,64.40
2023-04-06T08:56:50.198Z,64.45
2023-04-06T08:59:17.156Z,64.27
2023-04-06T09:01:47.113Z,64.47
2023-04-06T09:04:14.677Z,64.27
2023-04-06T09:06:42.266Z,64.46
2023-04-06T09:09:09.627Z,64.16
2023-04-06T09:11:47.223Z,64.28
2023-04-06T09:14:14.359Z,64.12
2023-04-06T09:16:46.358Z,64.04
2023-04-06T09:19:13.799Z,63.71
2023-04-06T09:21:41.271Z,64.02
2023-04-06T09:24:09.625Z,63.86
2023-04-06T09:26:47.707Z,63.76
2023-04-06T09:29:28.220Z,63.92
2023-04-06T09:32:04.486Z,63.32
2023-04-06T09:34:31.569Z,63.36
2023-04-06T09:36:59.519Z,63.26
2023-04-06T09:39:26.874Z,63.26
2023-04-06T09:41:55.520Z,63.24
2023-04-06T09:44:22.801Z,62.51
2023-04-06T09:46:58.861Z,62.71
2023-04-06T09:49:29.212Z,62.13
2023-04-06T09:52:04.658Z,61.85
2023-04-06T09:54:32.608Z,62.10
2023-04-06T09:57:11.973Z,61.72
2023-04-06T09:59:48.338Z,61.69
2023-04-06T10:02:31.594Z,61.56
2023-04-06T10:05:10.825Z,61.71
2023-04-06T10:07:46.251Z,61.47
2023-04-06T10:10:24.194Z,61.35
2023-04-06T10:12:51.182Z,61.36
2023-04-06T10:15:21.914Z,61.49
2023-04-06T10:17:50.098Z,60.73
2023-04-06T10:20:31.881Z,60.95
2023-04-06T10:23:10.035Z,61.17
2023-04-06T10:25:38.090Z,61.13
2023-04-06T10:28:11.669Z,60.78
2023-04-06T10:30:44.882Z,60.99
2023-04-06T10:33:19.978Z,60.57
2023-04-06T10:35:47.489Z,60.43
2023-04-06T10:38:15.526Z,60.78
2023-04-06T10:40:48.197Z,60.29
2023-04-06T10:43:21.251Z,60.84
2023-04-06T10:45:57.207Z,60.52
2023-04-06T10:48:25.205Z,60.44
2023-04-06T10:50:55.235Z,60.49
2023-04-06T10:53:26.721Z,60.42
2023-04-06T10:55:55.947Z,60.52
2023-04-06T10:58:27.803Z,60.40
2023-04-06T11:00:55.609Z,60.54
2023-04-06T11:03:22.905Z,60.35
2023-04-06T11:05:51.246Z,60.40
2023-04-06T11:08:32.437Z,60.82
2023-04-06T11:11:08.022Z,60.57
2023-04-06T11:13:46.707Z,59.95
2023-04-06T11:16:15.516Z,59.87
2023-04-06T11:18:55.472Z,59.69
2023-04-06T11:21:34.301Z,59.23
2023-04-06T11:24:16.387Z,59.39
2023-04-06T11:26:46.988Z,59.26
2023-04-06T11:29:14.651Z,59.01
2023-04-06T11:31:42.943Z,59.34
2023-04-06T11:34:14.676Z,58.55
2023-04-06T11:36:42.971Z,58.80
2023-04-06T11:39:10.754Z,58.55
2023-04-06T11:41:37.851Z,59.08
2023-04-06T11:44:05.001Z,58.84
2023-04-06T11:46:32.243Z,58.68
2023-04-06T11:49:01.719Z,58.40
2023-04-06T11:51:29.196Z,58.42
2023-04-06T11:53:57.117Z,58.56
2023-04-06T11:56:28.854Z,58.50
2023-04-06T11:58:57.611Z,57.89
2023-04-06T12:01:25.495Z,57.88
2023-04-06T12:03:53.638Z,58.29
2023-04-06T12:06:21.005Z,57.75
2023-04-06T12:08:47.906Z,58.06
2023-04-06T12:11:15.022Z,57.92
2023-04-06T12:13:42.043Z,57.66
2023-04-06T12:16:09.015Z,58.12
2023-04-06T12:18:36.168Z,57.50
2023-04-06T12:21:03.109Z,57.78
2023-04-06T12:23:30.045Z,57.66
2023-04-06T12:25:57.031Z,57.85
2023-04-06T12:28:28.029Z,57.76
2023-04-06T12:30:55.983Z,57.59
2023-04-06T12:33:22.968Z,57.83
2023-04-06T12:35:50.126Z,57.16
2023-04-06T12:38:17.122Z,57.36
2023-04-06T12:40:44.198Z,57.30
2023-04-06T12:43:11.988Z,56.99
2023-04-06T12:45:38.942Z,57.56
2023-04-06T12:48:06.232Z,57.15
2023-04-06T12:50:33.209Z,56.73
2023-04-06T12:53:00.117Z,56.52
2023-04-06T12:55:27.687Z,57.10
2023-04-06T12:57:55.011Z,57.08
2023-04-06T13:00:22.527Z,57.05
2023-04-06T13:02:49.608Z,57.12
2023-04-06T13:05:19.971Z,56.58
2023-04-06T13:07:47.938Z,56.94
2023-04-06T13:10:14.998Z,56.68
2023-04-06T13:12:42.022Z,56.74
2023-04-06T13:15:09.460Z,56.92
2023-04-06T13:17:36.534Z,56.99
2023-04-06T13:20:04.773Z,56.47
2023-04-06T13:22:34.705Z,56.50
2023-04-06T13:25:01.681Z,56.71
2023-04-06T13:27:28.641Z,56.67
2023-04-06T13:29:57.166Z,56.71
2023-04-06T13:32:24.099Z,56.32
2023-04-06T13:34:51.249Z,56.50
2023-04-06T13:37:18.196Z,56.36
2023-04-06T13:39:45.406Z,56.20
2023-04-06T13:42:12.338Z,56.03
2023-04-06T13:44:39.222Z,56.15
2023-04-06T13:47:06.921Z,55.92
2023-04-06T13:49:33.805Z,56.06
2023-04-06T13:52:00.808Z,55.97
2023-04-06T13:54:28.076Z,56.05
2023-04-06T13:56:55.051Z,56.00
2023-04-06T13:59:22.419Z,55.90
2023-04-06T14:01:49.511Z,56.20
2023-04-06T14:04:16.517Z,56.19
2023-04-06T14:06:46.343Z,56.26
2023-04-06T14:09:13.388Z,56.33
2023-04-06T14:11:40.259Z,56.36
2023-04-06T14:14:07.081Z,56.24
2023-04-06T14:16:33.965Z,56.54
2023-04-06T14:19:00.964Z,56.32
2023-04-06T14:21:27.829Z,56.61
2023-04-06T14:23:55.815Z,56.36
2023-04-06T14:26:23.897Z,56.72
2023-04-06T14:28:50.968Z,56.50
2023-04-06T14:31:18.173Z,56.41
2023-04-06T14:33:46.073Z,56.65
2023-04-06T14:36:13.277Z,56.82
2023-04-06T14:38:41.339Z,57.00
2023-04-06T14:41:09.701Z,57.07
2023-04-06T14:43:36.616Z,56.85
2023-04-06T14:46:03.788Z,57.01
2023-04-06T14:48:30.830Z,57.11
2023-04-06T14:50:58.314Z,57.19
2023-04-06T14:53:25.580Z,57.33
2023-04-06T14:55:52.589Z,57.11
2023-04-06T14:58:20.482Z,57.40
2023-04-06T15:00:47.600Z,57.63
2023-04-06T15:03:15.462Z,57.52
2023-04-06T15:05:43.228Z,57.63
2023-04-06T15:08:10.688Z,57.85
2023-04-06T15:10:37.744Z,57.82
2023-04-06T15:13:04.663Z,57.91
2023-04-06T15:15:31.835Z,57.89
2023-04-06T15:17:58.999Z,58.09
2023-04-06T15:20:25.966Z,58.03
2023-04-06T15:22:52.981Z,58.24
2023-04-06T15:25:19.892Z,58.41
2023-04-06T15:27:46.876Z,58.23
2023-04-06T15:30:14.179Z,58.55
2023-04-06T15:32:41.307Z,58.56
2023-04-06T15:35:12.345Z,58.61
2023-04-06T15:37:39.910Z,58.98
2023-04-06T15:40:07.799Z,58.74
2023-04-06T15:42:34.693Z,59.10
2023-04-06T15:45:01.782Z,58.92
2023-04-06T15:47:28.772Z,58.90
2023-04-06T15:49:55.609Z,59.42
2023-04-06T15:52:23.027Z,59.32
2023-04-06T15:54:50.127Z,59.39
2023-04-06T15:57:17.030Z,59.50
2023-04-06T15:59:43.962Z,59.64
2023-04-06T16:02:11.099Z,59.99
2023-04-06T16:04:38.811Z,60.03
2023-04-06T16:07:06.160Z,59.98
2023-04-06T16:09:33.508Z,60.18
2023-04-06T16:12:01.568Z,60.10
2023-04-06T16:14:28.491Z,60.03
2023-04-06T16:16:55.686Z,60.36
2023-04-06T16:19:22.581Z,60.24
2023-04-06T16:21:49.646Z,60.55
2023-04-06T16:24:16.452Z,60.74
2023-04-06T16:26:44.539Z,60.83
2023-04-06T16:29:12.974Z,60.84
2023-04-06T16:31:39.991Z,61.21
2023-04-06T16:34:07.276Z,61.09
2023-04-06T16:36:34.184Z,60.78
2023-04-06T16:39:02.423Z,61.57
2023-04-06T16:41:29.328Z,61.35
2023-04-06T16:43:57.551Z,61.72
2023-04-06T16:46:35.855Z,61.81
2023-04-06T16:49:04.479Z,61.77
2023-04-06T16:51:34.647Z,62.02
2023-04-06T16:54:02.393Z,62.04
2023-04-06T16:56:29.471Z,62.06
2023-04-06T16:58:56.355Z,62.30
2023-04-06T17:01:26.744Z,62.43
2023-04-06T17:03:54.714Z,62.41
2023-04-06T17:06:21.898Z,62.26
2023-04-06T17:08:49.321Z,62.50
2023-04-06T17:11:21.735Z,62.83
2023-04-06T17:13:50.846Z,62.88
2023-04-06T17:16:18.316Z,62.89
2023-04-06T17:18:45.370Z,62.90
2023-04-06T17:21:14.615Z,63.01
2023-04-06T17:23:41.882Z,63.18
2023-04-06T17:26:08.824Z,63.35
2023-04-06T17:28:35.779Z,63.44
2023-04-06T17:31:02.854Z,63.22
2023-04-06T17:33:32.527Z,63.20
2023-04-06T17:35:59.554Z,63.45
2023-04-06T17:38:29.717Z,63.66
2023-04-06T17:40:57.923Z,63.90
2023-04-06T17:43:24.761Z,63.67
2023-04-06T17:45:52.600Z,63.97
2023-04-06T17:48:19.668Z,63.91
2023-04-06T17:50:47.618Z,64.02
2023-04-06T17:53:17.313Z,64.03
2023-04-06T17:55:44.597Z,64.06
2023-04-06T17:58:13.769Z,64.20
2023-04-06T18:00:45.490Z,64.29
2023-04-06T18:03:17.623Z,64.39
2023-04-06T18:05:47.921Z,64.37
2023-04-06T18:08:15.780Z,64.35
2023-04-06T18:10:46.173Z,64.62
2023-04-06T18:13:13.697Z,64.73
2023-04-06T18:15:40.571Z,64.71
2023-04-06T18:18:08.055Z,64.78
2023-04-06T18:20:40.055Z,65.07
2023-04-06T18:23:06.902Z,65.03
2023-04-06T18:25:38.447Z,64.85
2023-04-06T18:28:06.345Z,65.26
2023-04-06T18:30:33.379Z,65.30
2023-04-06T18:33:00.581Z,65.50
2023-04-06T18:35:27.494Z,65.30
2023-04-06T18:37:54.662Z,64.95
2023-04-06T18:40:39.055Z,65.55
2023-04-06T18:43:09.197Z,65.27
2023-04-06T18:45:41.235Z,65.55
2023-04-06T18:48:14.227Z,65.24
2023-04-06T18:50:41.207Z,65.37
2023-04-06T18:53:08.885Z,65.25
2023-04-06T18:55:37.054Z,65.66
2023-04-06T18:58:05.463Z,65.58
2023-04-06T19:00:35.074Z,65.38
2023-04-06T19:03:02.691Z,65.75
2023-04-06T19:05:32.495Z,65.79
2023-04-06T19:07:59.480Z,65.49
2023-04-06T19:10:30.901Z,65.70
2023-04-06T19:12:58.526Z,65.84
2023-04-06T19:15:26.740Z,65.82
2023-04-06T19:17:53.945Z,65.62
2023-04-06T19:20:23.648Z,65.72
2023-04-06T19:22:51.853Z,65.61
2023-04-06T19:25:19.789Z,66.15
2023-04-06T19:27:49.235Z,66.18
2023-04-06T19:30:18.604Z,65.93
2023-04-06T19:32:46.134Z,65.86
2023-04-06T19:35:13.147Z,66.45
2023-04-06T19:37:40.408Z,66.31
2023-04-06T19:40:10.523Z,66.29
2023-04-06T19:42:38.831Z,66.04
2023-04-06T19:45:07.474Z,66.62
2023-04-06T19:47:35.662Z,66.54
2023-04-06T19:50:04.525Z,66.46
2023-04-06T19:52:33.335Z,66.52
2023-04-06T19:55:01.027Z,66.72
2023-04-06T19:57:30.051Z,66.62
2023-04-06T19:59:56.913Z,66.48
2023-04-06T20:02:24.080Z,66.73
2023-04-06T20:04:51.032Z,66.95
2023-04-06T20:07:18.036Z,66.92
2023-04-06T20:09:44.859Z,66.72
2023-04-06T20:12:11.910Z,67.22
2023-04-06T20:14:38.810Z,67.08
2023-04-06T20:17:05.780Z,67.23
2023-04-06T20:19:32.931Z,67.41
2023-04-06T20:22:03.248Z,67.56
2023-04-06T20:24:31.383Z,67.62
2023-04-06T20:26:58.251Z,67.71
2023-04-06T20:29:26.723Z,67.68
2023-04-06T20:31:53.652Z,67.61
2023-04-06T20:34:20.928Z,67.65
2023-04-06T20:36:47.840Z,68.07
2023-04-06T20:39:14.737Z,68.20
2023-04-06T20:41:42.408Z,68.16
2023-04-06T20:44:09.468Z,68.20
2023-04-06T20:46:36.512Z,68.18
2023-04-06T20:49:04.191Z,68.24
2023-04-06T20:51:31.401Z,68.74
2023-04-06T20:53:58.508Z,68.53
2023-04-06T20:56:26.799Z,68.65
2023-04-06T20:58:54.011Z,68.99
2023-04-06T21:01:21.159Z,68.84
2023-04-06T21:03:48.156Z,69.18
2023-04-06T21:06:15.805Z,69.36
2023-04-06T21:08:42.644Z,69.37
2023-04-06T21:11:10.605Z,69.85
2023-04-06T21:13:37.460Z,69.75
2023-04-06T21:16:05.690Z,70.30
2023-04-06T21:18:32.787Z,70.25
2023-04-06T21:20:59.696Z,70.58
2023-04-06T21:23:26.743Z,70.84
2023-04-06T21:25:56.985Z,70.85
2023-04-06T21:28:25.514Z,70.82
2023-04-06T21:30:55.993Z,70.85
2023-04-06T21:33:23.120Z,71.33
2023-04-06T21:35:50.180Z,71.75
2023-04-06T21:38:17.077Z,71.70
2023-04-06T21:40:43.922Z,71.88
2023-04-06T21:43:11.632Z,72.05
2023-04-06T21:45:38.818Z,72.13
2023-04-06T21:48:06.025Z,72.28
2023-04-06T21:50:32.928Z,72.70
2023-04-06T21:52:59.784Z,72.45
2023-04-06T21:55:26.678Z,72.73
2023-04-06T21:57:53.453Z,72.80
2023-04-06T22:00:20.713Z,73.10
2023-04-06T22:02:47.721Z,73.51
2023-04-06T22:05:14.845Z,73.70
2023-04-06T22:07:41.816Z,73.92
2023-04-06T22:10:08.915Z,74.18
2023-04-06T22:12:35.773Z,74.21
2023-04-06T22:15:02.840Z,74.25
2023-04-06T22:17:30.262Z,74.48
2023-04-06T22:19:57.058Z,74.45
2023-04-06T22:22:24.849Z,74.77
2023-04-06T22:24:52.019Z,74.99
2023-04-06T22:27:18.917Z,75.15
2023-04-06T22:29:45.778Z,75.00
2023-04-06T22:32:12.628Z,75.55
2023-04-06T22:34:39.658Z,75.83
2023-04-06T22:37:06.509Z,75.86
2023-04-06T22:39:33.377Z,75.85
2023-04-06T22:42:00.327Z,75.91
2023-04-06T22:44:27.181Z,76.30
2023-04-06T22:46:54.096Z,76.33
2023-04-06T22:49:20.908Z,76.37
2023-04-06T22:51:47.702Z,76.60
2023-04-06T22:54:14.655Z,76.76
2023-04-06T22:56:41.835Z,76.75
2023-04-06T22:59:08.856Z,76.78
2023-04-06T23:01:35.740Z,76.68
2023-04-06T23:04:02.950Z,77.42
2023-04-06T23:06:29.869Z,77.44
2023-04-06T23:08:57.063Z,77.39
2023-04-06T23:11:24.175Z,77.44
2023-04-06T23:13:51.104Z,77.69
2023-04-06T23:16:17.945Z,77.79
2023-04-06T23:18:44.846Z,78.09
2023-04-06T23:21:11.630Z,77.87
2023-04-06T23:23:38.646Z,78.18
2023-04-06T23:26:06.228Z,77.99
2023-04-06T23:28:33.091Z,78.44
2023-04-06T23:30:59.916Z,78.44
2023-04-06T23:33:28.410Z,78.33
2023-04-06T23:35:55.526Z,78.81
2023-04-06T23:38:22.330Z,78.79
2023-04-06T23:40:49.292Z,79.02
2023-04-06T23:43:16.083Z,79.07
2023-04-06T23:45:43.382Z,79.30
2023-04-06T23:48:10.893Z,79.53
2023-04-06T23:50:38.254Z,79.56
2023-04-06T23:53:05.653Z,79.46
2023-04-06T23:55:32.739Z,79.77
2023-04-06T23:58:00.486Z,80.09
